createdAt,value
2023-02-23T00:00:04.493Z,1.92
2023-02-23T00:01:03.982Z,2.66
2023-02-23T00:02:03.475Z,1.75
2023-02-23T00:03:04.169Z,3.14
2023-02-23T00:04:04.480Z,2.79
2023-02-23T00:05:04.484Z,2.81
2023-02-23T00:06:03.901Z,3.88
2023-02-23T00:07:04.518Z,4.21
2023-02-23T00:08:04.202Z,2.74
2023-02-23T00:09:04.171Z,2.24
2023-02-23T00:10:03.925Z,2.83
2023-02-23T00:11:04.171Z,2.75
2023-02-23T00:12:03.770Z,2.31
2023-02-23T00:13:03.793Z,2.77
2023-02-23T00:14:04.588Z,2.22
2023-02-23T00:15:04.394Z,3.84
2023-02-23T00:16:03.707Z,2.44
2023-02-23T00:17:04.414Z,1.48
2023-02-23T00:18:04.241Z,2.38
2023-02-23T00:19:03.911Z,2.85
2023-02-23T00:20:04.294Z,2.29
2023-02-23T00:21:03.784Z,2.56
2023-02-23T00:22:04.598Z,2.19
2023-02-23T00:23:04.406Z,2.84
2023-02-23T00:24:04.092Z,2.84
2023-02-23T00:25:05.306Z,2.09
2023-02-23T00:26:04.069Z,2.49
2023-02-23T00:27:03.769Z,2.49
2023-02-23T00:28:04.509Z,1.78
2023-02-23T00:29:04.014Z,2.02
2023-02-23T00:30:04.074Z,2.02
2023-02-23T00:31:03.823Z,2.02
2023-02-23T00:32:04.823Z,2.87
2023-02-23T00:33:04.059Z,2.56
2023-02-23T00:34:03.757Z,2.59
2023-02-23T00:35:03.703Z,2.08
2023-02-23T00:36:04.126Z,2.02
2023-02-23T00:37:03.486Z,2.02
2023-02-23T00:38:04.445Z,2.05
2023-02-23T00:39:04.014Z,1.62
2023-02-23T00:40:03.636Z,2.24
2023-02-23T00:41:04.113Z,2.49
2023-02-23T00:42:03.904Z,3.31
2023-02-23T00:43:03.513Z,3.25
2023-02-23T00:44:04.461Z,2.14
2023-02-23T00:45:04.072Z,2.09
2023-02-23T00:46:04.482Z,2.61
2023-02-23T00:47:04.117Z,2.76
2023-02-23T00:48:04.010Z,2.49
2023-02-23T00:49:03.682Z,1.94
2023-02-23T00:50:04.354Z,2.48
2023-02-23T00:51:04.058Z,1.89
2023-02-23T00:52:03.792Z,2.68
2023-02-23T00:53:04.545Z,2.02
2023-02-23T00:54:04.195Z,1.86
2023-02-23T00:55:04.012Z,2.46
2023-02-23T00:56:04.637Z,2.04
2023-02-23T00:57:03.937Z,2.62
2023-02-23T00:58:04.080Z,2.2
2023-02-23T00:59:03.704Z,1.71
2023-02-23T01:00:03.700Z,2.33
2023-02-23T01:01:03.737Z,1.77
2023-02-23T01:02:04.370Z,2.57
2023-02-23T01:03:04.059Z,3.42
2023-02-23T01:04:03.781Z,2.03
2023-02-23T01:05:03.438Z,2.69
2023-02-23T01:06:03.856Z,2.72
2023-02-23T01:07:03.830Z,2.88
2023-02-23T01:08:04.429Z,2.16
2023-02-23T01:09:04.002Z,2.15
2023-02-23T01:10:03.979Z,2.11
2023-02-23T01:11:03.934Z,2.42
2023-02-23T01:12:03.876Z,2.46
2023-02-23T01:13:04.438Z,2.09
2023-02-23T01:14:04.060Z,2.32
2023-02-23T01:15:04.042Z,2.95
2023-02-23T01:16:04.608Z,2.95
2023-02-23T01:17:04.074Z,2.59
2023-02-23T01:18:04.064Z,2.55
2023-02-23T01:19:03.845Z,2.08
2023-02-23T01:20:04.546Z,3.24
2023-02-23T01:21:04.429Z,2.73
2023-02-23T01:22:04.065Z,2.14
2023-02-23T01:23:03.784Z,1.89
2023-02-23T01:24:04.581Z,2.79
2023-02-23T01:25:04.473Z,3.11
2023-02-23T01:26:03.910Z,3.22
2023-02-23T01:27:04.659Z,1.39
2023-02-23T01:28:04.337Z,2.79
2023-02-23T01:29:04.055Z,2.36
2023-02-23T01:30:03.872Z,3.31
2023-02-23T01:31:04.317Z,3.94
2023-02-23T01:32:06.823Z,2.08
2023-02-23T01:33:04.494Z,3.64
2023-02-23T01:34:04.279Z,2.7
2023-02-23T01:35:04.133Z,2.92
2023-02-23T01:36:04.190Z,3.05
2023-02-23T01:37:04.049Z,2.88
2023-02-23T01:38:03.753Z,1.85
2023-02-23T01:39:04.420Z,1.67
2023-02-23T01:40:04.264Z,2.59
2023-02-23T01:41:04.487Z,2.92
2023-02-23T01:42:04.271Z,2.56
2023-02-23T01:43:03.824Z,3.1
2023-02-23T01:44:03.614Z,2.59
2023-02-23T01:45:04.417Z,2.05
2023-02-23T01:46:03.920Z,1.91
2023-02-23T01:47:04.522Z,3.24
2023-02-23T01:48:04.407Z,2.35
2023-02-23T01:49:04.005Z,3.23
2023-02-23T01:50:03.900Z,2.92
2023-02-23T01:51:03.961Z,3.07
2023-02-23T01:52:04.759Z,2.95
2023-02-23T01:53:04.392Z,3.35
2023-02-23T01:54:04.106Z,2.63
2023-02-23T01:55:03.888Z,2.72
2023-02-23T01:56:04.103Z,2.25
2023-02-23T01:57:04.059Z,2.74
2023-02-23T01:58:03.631Z,3.21
2023-02-23T01:59:03.627Z,2.48
2023-02-23T02:00:04.573Z,2.59
2023-02-23T02:01:04.113Z,1.62
2023-02-23T02:02:03.964Z,2.66
2023-02-23T02:03:03.861Z,1.52
2023-02-23T02:04:04.460Z,2.62
2023-02-23T02:05:04.431Z,2.62
2023-02-23T02:06:04.430Z,4.24
2023-02-23T02:07:04.165Z,2.78
2023-02-23T02:08:03.754Z,3.73
2023-02-23T02:09:03.584Z,2.26
2023-02-23T02:10:04.491Z,2.51
2023-02-23T02:11:03.618Z,2.86
2023-02-23T02:12:04.275Z,2.15
2023-02-23T02:13:04.072Z,2.41
2023-02-23T02:14:03.941Z,2.18
2023-02-23T02:15:04.584Z,2.28
2023-02-23T02:16:04.272Z,2.25
2023-02-23T02:17:03.997Z,2.24
2023-02-23T02:18:03.973Z,3.49
2023-02-23T02:19:04.109Z,2.69
2023-02-23T02:20:03.822Z,2.18
2023-02-23T02:21:04.174Z,1.92
2023-02-23T02:22:02.385Z,2.06
2023-02-23T02:23:04.427Z,1.82
2023-02-23T02:24:04.142Z,2.28
2023-02-23T02:25:03.838Z,2.49
2023-02-23T02:26:03.879Z,3.28
2023-02-23T02:27:03.706Z,2.66
2023-02-23T02:28:04.483Z,2.77
2023-02-23T02:29:04.435Z,2.15
2023-02-23T02:30:04.082Z,1.35
2023-02-23T02:31:04.633Z,3.05
2023-02-23T02:32:04.058Z,3.16
2023-02-23T02:33:03.715Z,3.21
2023-02-23T02:34:04.403Z,2.75
2023-02-23T02:35:04.525Z,2.58
2023-02-23T02:36:04.292Z,2.67
2023-02-23T02:37:04.306Z,2.1
2023-02-23T02:38:04.156Z,2.24
2023-02-23T02:39:03.860Z,1.91
2023-02-23T02:40:04.549Z,3.34
2023-02-23T02:41:03.958Z,2.96
2023-02-23T02:42:03.726Z,2.62
2023-02-23T02:43:04.220Z,3.36
2023-02-23T02:44:04.176Z,2.2
2023-02-23T02:45:03.819Z,2.11
2023-02-23T02:46:04.374Z,2.32
2023-02-23T02:47:03.994Z,2.65
2023-02-23T02:48:03.847Z,3.24
2023-02-23T02:49:04.599Z,2.89
2023-02-23T02:50:04.409Z,2.65
2023-02-23T02:51:03.734Z,2.41
2023-02-23T02:52:03.629Z,2.51
2023-02-23T02:53:04.248Z,1.64
2023-02-23T02:54:04.091Z,2.34
2023-02-23T02:55:04.008Z,2.34
2023-02-23T02:56:04.140Z,2.68
2023-02-23T02:57:03.829Z,1.45
2023-02-23T02:58:03.920Z,1.45
2023-02-23T02:59:03.593Z,1.51
2023-02-23T03:00:04.239Z,3.55
2023-02-23T03:01:04.594Z,1.98
2023-02-23T03:02:04.372Z,1.7
2023-02-23T03:03:04.093Z,2.42
2023-02-23T03:04:03.855Z,3.67
2023-02-23T03:05:03.964Z,2.46
2023-02-23T03:06:03.813Z,2.79
2023-02-23T03:07:04.601Z,3.27
2023-02-23T03:08:04.248Z,3.24
2023-02-23T03:09:03.806Z,1.6
2023-02-23T03:10:03.823Z,4.48
2023-02-23T03:11:03.645Z,4.2
2023-02-23T03:12:03.651Z,3
2023-02-23T03:13:04.353Z,2.33
2023-02-23T03:14:03.880Z,1.82
2023-02-23T03:15:03.856Z,2.44
2023-02-23T03:16:04.103Z,2.25
2023-02-23T03:17:03.688Z,2.98
2023-02-23T03:18:04.525Z,3.68
2023-02-23T03:19:04.477Z,3.02
2023-02-23T03:20:04.465Z,2.03
2023-02-23T03:21:04.454Z,2.49
2023-02-23T03:22:04.210Z,3.21
2023-02-23T03:23:03.884Z,3.67
2023-02-23T03:24:05.259Z,3.18
2023-02-23T03:25:04.327Z,3.34
2023-02-23T03:26:04.240Z,3.05
2023-02-23T03:27:04.278Z,2.05
2023-02-23T03:28:04.126Z,2.78
2023-02-23T03:29:03.756Z,3.32
2023-02-23T03:30:04.593Z,2.78
2023-02-23T03:31:03.909Z,2.41
2023-02-23T03:32:05.067Z,2.39
2023-02-23T03:33:04.708Z,4.58
2023-02-23T03:34:04.452Z,1.88
2023-02-23T03:35:04.053Z,2.16
2023-02-23T03:36:04.237Z,2.93
2023-02-23T03:37:04.109Z,3.15
2023-02-23T03:38:03.964Z,3.04
2023-02-23T03:39:03.685Z,2.99
2023-02-23T03:40:04.578Z,1.94
2023-02-23T03:41:03.960Z,2.92
2023-02-23T03:42:03.678Z,1.79
2023-02-23T03:43:04.532Z,3.34
2023-02-23T03:44:04.316Z,3.36
2023-02-23T03:45:03.989Z,2.49
2023-02-23T03:46:04.040Z,5.39
2023-02-23T03:47:04.404Z,5.39
2023-02-23T03:48:04.434Z,2.71
2023-02-23T03:49:04.249Z,3.62
2023-02-23T03:50:03.949Z,2.88
2023-02-23T03:51:04.533Z,3.39
2023-02-23T03:52:04.285Z,4.56
2023-02-23T03:53:03.970Z,1.81
2023-02-23T03:54:03.775Z,2.51
2023-02-23T03:55:04.537Z,3.69
2023-02-23T03:56:04.543Z,3.18
2023-02-23T03:57:04.518Z,2.61
2023-02-23T03:58:04.008Z,2.58
2023-02-23T03:59:04.012Z,2.81
2023-02-23T04:00:03.851Z,3.53
2023-02-23T04:01:04.259Z,2.4
2023-02-23T04:02:04.206Z,2.25
2023-02-23T04:03:03.747Z,2.79
2023-02-23T04:04:04.404Z,2.61
2023-02-23T04:05:04.154Z,3.82
2023-02-23T04:06:04.348Z,3.22
2023-02-23T04:07:04.103Z,1.51
2023-02-23T04:08:03.817Z,2.48
2023-02-23T04:09:04.397Z,3.48
2023-02-23T04:10:04.304Z,2.18
2023-02-23T04:11:03.826Z,2.21
2023-02-23T04:12:03.699Z,3.08
2023-02-23T04:13:04.120Z,3.03
2023-02-23T04:14:04.177Z,3.38
2023-02-23T04:15:03.970Z,5.04
2023-02-23T04:16:04.190Z,2.98
2023-02-23T04:17:04.044Z,3.99
2023-02-23T04:18:03.886Z,2.87
2023-02-23T04:19:04.514Z,3.22
2023-02-23T04:20:04.210Z,3.13
2023-02-23T04:21:03.955Z,3.05
2023-02-23T04:22:04.358Z,3.48
2023-02-23T04:23:04.158Z,3.36
2023-02-23T04:24:03.985Z,2.37
2023-02-23T04:25:03.542Z,3.68
2023-02-23T04:26:03.899Z,3.28
2023-02-23T04:27:03.400Z,5.19
2023-02-23T04:28:04.286Z,3.7
2023-02-23T04:29:04.095Z,3.73
2023-02-23T04:30:03.838Z,3.55
2023-02-23T04:31:04.044Z,3.45
2023-02-23T04:32:03.956Z,3.24
2023-02-23T04:33:04.501Z,4.64
2023-02-23T04:34:04.276Z,3.43
2023-02-23T04:35:04.008Z,3.28
2023-02-23T04:36:04.275Z,4.62
2023-02-23T04:37:04.091Z,4.62
2023-02-23T04:38:03.610Z,4.44
2023-02-23T04:39:04.362Z,3.52
2023-02-23T04:40:04.277Z,3.52
2023-02-23T04:41:04.086Z,3.74
2023-02-23T04:42:03.917Z,3.42
2023-02-23T04:43:03.758Z,3.07
2023-02-23T04:44:04.611Z,2.91
2023-02-23T04:45:04.293Z,3.36
2023-02-23T04:46:03.971Z,2.84
2023-02-23T04:47:03.502Z,3.96
2023-02-23T04:48:04.253Z,2.89
2023-02-23T04:49:04.246Z,4.86
2023-02-23T04:50:04.146Z,3.49
2023-02-23T04:51:04.248Z,3.77
2023-02-23T04:52:04.037Z,3.51
2023-02-23T04:53:03.961Z,3.38
2023-02-23T04:54:04.832Z,3.26
2023-02-23T04:55:04.487Z,3.69
2023-02-23T04:56:04.559Z,4.46
2023-02-23T04:57:04.230Z,2.85
2023-02-23T04:58:04.072Z,2.49
2023-02-23T04:59:03.551Z,3.54
2023-02-23T05:00:04.482Z,2.94
2023-02-23T05:01:03.879Z,3.02
2023-02-23T05:02:04.711Z,3.45
2023-02-23T05:03:04.364Z,3.87
2023-02-23T05:04:04.050Z,4.6
2023-02-23T05:05:03.892Z,3.02
2023-02-23T05:06:04.142Z,3.05
2023-02-23T05:07:03.755Z,3.94
2023-02-23T05:08:04.694Z,3.51
2023-02-23T05:09:04.280Z,3.87
2023-02-23T05:10:03.944Z,2.93
2023-02-23T05:11:04.107Z,3.31
2023-02-23T05:12:03.913Z,3.29
2023-02-23T05:13:03.521Z,2.86
2023-02-23T05:14:04.480Z,3.86
2023-02-23T05:15:04.199Z,4.14
2023-02-23T05:16:04.532Z,2.74
2023-02-23T05:17:04.064Z,3.56
2023-02-23T05:18:03.782Z,4.32
2023-02-23T05:19:04.663Z,3.24
2023-02-23T05:20:04.311Z,2.59
2023-02-23T05:21:04.062Z,3.03
2023-02-23T05:22:03.856Z,4.74
2023-02-23T05:23:04.299Z,3.1
2023-02-23T05:24:04.208Z,3.15
2023-02-23T05:25:04.189Z,3.79
2023-02-23T05:26:04.360Z,2.66
2023-02-23T05:27:04.082Z,2.66
2023-02-23T05:28:03.915Z,3.15
2023-02-23T05:29:03.690Z,3.15
2023-02-23T05:30:04.625Z,2.23
2023-02-23T05:31:04.530Z,3.07
2023-02-23T05:32:04.652Z,4.19
2023-02-23T05:33:04.025Z,2.41
2023-02-23T05:34:03.704Z,2.69
2023-02-23T05:35:04.482Z,2.73
2023-02-23T05:36:03.650Z,3.52
2023-02-23T05:37:04.393Z,4.26
2023-02-23T05:38:04.063Z,3.66
2023-02-23T05:39:03.886Z,2.77
2023-02-23T05:40:04.535Z,2.32
2023-02-23T05:41:04.039Z,2.82
2023-02-23T05:42:03.904Z,4.1
2023-02-23T05:43:04.521Z,3.85
2023-02-23T05:44:04.293Z,2.61
2023-02-23T05:45:03.981Z,3.07
2023-02-23T05:46:04.414Z,3.55
2023-02-23T05:47:04.167Z,3.82
2023-02-23T05:48:04.065Z,4.04
2023-02-23T05:49:03.683Z,4.09
2023-02-23T05:50:04.190Z,3.15
2023-02-23T05:51:03.708Z,2.82
2023-02-23T05:52:04.441Z,3.39
2023-02-23T05:53:04.190Z,3.31
2023-02-23T05:54:03.828Z,2.99
2023-02-23T05:55:03.958Z,3.81
2023-02-23T05:56:04.194Z,4.18
2023-02-23T05:57:04.130Z,4.29
2023-02-23T05:58:03.803Z,3.06
2023-02-23T05:59:04.513Z,4.08
2023-02-23T06:00:04.351Z,2.73
2023-02-23T06:01:04.086Z,3.75
2023-02-23T06:02:03.857Z,4.55
2023-02-23T06:03:04.625Z,3.99
2023-02-23T06:04:06.380Z,3.99
2023-02-23T06:06:04.381Z,3.79
2023-02-23T06:07:03.743Z,4.74
2023-02-23T06:08:04.360Z,3.29
2023-02-23T06:09:04.103Z,3.12
2023-02-23T06:10:04.111Z,3.89
2023-02-23T06:11:04.016Z,4.4
2023-02-23T06:12:03.733Z,4.09
2023-02-23T06:13:04.491Z,3.4
2023-02-23T06:14:04.242Z,2.85
2023-02-23T06:15:03.954Z,3.49
2023-02-23T06:16:04.519Z,3.52
2023-02-23T06:17:04.051Z,3.42
2023-02-23T06:18:03.962Z,3.12
2023-02-23T06:19:04.575Z,4.31
2023-02-23T06:20:04.347Z,2.76
2023-02-23T06:21:04.534Z,2.8
2023-02-23T06:22:04.166Z,2.88
2023-02-23T06:23:03.872Z,3.68
2023-02-23T06:24:03.693Z,3.24
2023-02-23T06:25:04.304Z,3.2
2023-02-23T06:26:03.786Z,3.32
2023-02-23T06:27:03.650Z,3.96
2023-02-23T06:28:04.360Z,3.82
2023-02-23T06:29:04.147Z,3.48
2023-02-23T06:30:04.173Z,3.92
2023-02-23T06:31:04.336Z,4.65
2023-02-23T06:32:04.122Z,5.25
2023-02-23T06:33:03.784Z,3.55
2023-02-23T06:34:04.580Z,3.94
2023-02-23T06:35:04.425Z,4.86
2023-02-23T06:36:03.681Z,3.86
2023-02-23T06:37:04.434Z,3.45
2023-02-23T06:38:04.236Z,4.35
2023-02-23T06:39:04.087Z,3.49
2023-02-23T06:40:03.949Z,4.36
2023-02-23T06:41:03.435Z,4.34
2023-02-23T06:42:04.358Z,3.09
2023-02-23T06:43:03.921Z,4.2
2023-02-23T06:44:03.965Z,4.2
2023-02-23T06:45:03.789Z,3.47
2023-02-23T06:46:03.872Z,3.47
2023-02-23T06:47:03.708Z,3.7
2023-02-23T06:48:04.608Z,4.04
2023-02-23T06:49:04.240Z,3.04
2023-02-23T06:50:03.996Z,4.18
2023-02-23T06:51:04.143Z,4
2023-02-23T06:52:04.021Z,2.88
2023-02-23T06:53:03.679Z,4.06
2023-02-23T06:54:04.497Z,4.96
2023-02-23T06:55:04.244Z,3.37
2023-02-23T06:56:03.818Z,2.92
2023-02-23T06:57:04.638Z,3.09
2023-02-23T06:58:04.340Z,3.96
2023-02-23T06:59:04.170Z,5.09
2023-02-23T07:00:03.933Z,4.38
2023-02-23T07:01:04.432Z,4.64
2023-02-23T07:02:04.337Z,4.31
2023-02-23T07:03:03.783Z,3.89
2023-02-23T07:04:03.878Z,3.36
2023-02-23T07:05:04.498Z,4.54
2023-02-23T07:06:03.889Z,5.01
2023-02-23T07:07:04.436Z,4.09
2023-02-23T07:08:04.464Z,4.78
2023-02-23T07:09:04.096Z,4.76
2023-02-23T07:10:03.446Z,4.88
2023-02-23T07:11:03.886Z,4.53
2023-02-23T07:12:03.717Z,4.95
2023-02-23T07:13:04.405Z,3.8
2023-02-23T07:14:04.265Z,4.89
2023-02-23T07:15:04.067Z,3.44
2023-02-23T07:16:04.147Z,3.3
2023-02-23T07:17:03.873Z,4.2
2023-02-23T07:18:03.800Z,5.27
2023-02-23T07:19:04.340Z,5.2
2023-02-23T07:20:04.288Z,5.02
2023-02-23T07:21:04.530Z,5.76
2023-02-23T07:22:04.194Z,3.64
2023-02-23T07:23:03.887Z,4.84
2023-02-23T07:24:03.784Z,5.4
2023-02-23T07:25:04.572Z,2.42
2023-02-23T07:26:03.947Z,4.05
2023-02-23T07:27:03.790Z,4.18
2023-02-23T07:28:04.425Z,4.16
2023-02-23T07:29:04.085Z,7.22
2023-02-23T07:30:04.005Z,3.94
2023-02-23T07:31:04.180Z,3.99
2023-02-23T07:32:03.923Z,4.32
2023-02-23T07:33:04.688Z,4.97
2023-02-23T07:34:04.392Z,5.23
2023-02-23T07:35:04.099Z,5.23
2023-02-23T07:36:04.383Z,3.5
2023-02-23T07:37:04.084Z,4.06
2023-02-23T07:38:04.059Z,4.92
2023-02-23T07:39:04.063Z,4.68
2023-02-23T07:40:03.954Z,4.41
2023-02-23T07:41:03.609Z,5.1
2023-02-23T07:42:04.265Z,4.53
2023-02-23T07:43:04.132Z,3.57
2023-02-23T07:44:04.034Z,4.01
2023-02-23T07:45:03.957Z,3.64
2023-02-23T07:46:04.406Z,6.1
2023-02-23T07:47:03.806Z,3.7
2023-02-23T07:48:04.628Z,4.22
2023-02-23T07:49:04.312Z,3.91
2023-02-23T07:50:04.181Z,3.84
2023-02-23T07:51:04.593Z,4.42
2023-02-23T07:52:04.249Z,4.06
2023-02-23T07:53:03.917Z,3.78
2023-02-23T07:54:03.776Z,4.78
2023-02-23T07:55:04.438Z,4.35
2023-02-23T07:56:03.695Z,5.08
2023-02-23T07:57:04.537Z,3.97
2023-02-23T07:58:03.986Z,2.95
2023-02-23T07:59:03.863Z,4.36
2023-02-23T08:00:03.418Z,4.11
2023-02-23T08:01:03.988Z,4.72
2023-02-23T08:02:03.579Z,5.15
2023-02-23T08:03:04.439Z,2.88
2023-02-23T08:04:04.324Z,3.8
2023-02-23T08:05:04.115Z,4.21
2023-02-23T08:06:04.243Z,4.54
2023-02-23T08:07:03.944Z,3.78
2023-02-23T08:08:04.472Z,5.05
2023-02-23T08:09:04.202Z,5.17
2023-02-23T08:10:04.201Z,3.42
2023-02-23T08:11:03.938Z,4.45
2023-02-23T08:12:03.728Z,3.79
2023-02-23T08:13:04.636Z,3.47
2023-02-23T08:14:04.304Z,3.76
2023-02-23T08:15:04.042Z,5.49
2023-02-23T08:16:04.036Z,5.89
2023-02-23T08:17:04.114Z,5.66
2023-02-23T08:18:04.355Z,4.25
2023-02-23T08:19:04.355Z,4.29
2023-02-23T08:20:04.062Z,4.65
2023-02-23T08:21:04.395Z,4.49
2023-02-23T08:22:04.008Z,4.13
2023-02-23T08:23:03.839Z,6.49
2023-02-23T08:24:03.720Z,5.78
2023-02-23T08:25:03.701Z,5.78
2023-02-23T08:26:03.898Z,3.88
2023-02-23T08:27:04.517Z,3.92
2023-02-23T08:28:06.649Z,3.92
2023-02-23T08:29:04.136Z,3.81
2023-02-23T08:30:03.794Z,4.58
2023-02-23T08:31:04.355Z,5.13
2023-02-23T08:32:04.241Z,3.92
2023-02-23T08:33:04.376Z,3.84
2023-02-23T08:34:04.428Z,6.17
2023-02-23T08:35:04.071Z,4.44
2023-02-23T08:36:04.473Z,5.32
2023-02-23T08:37:04.081Z,4.68
2023-02-23T08:38:03.914Z,6.01
2023-02-23T08:39:03.547Z,3.74
2023-02-23T08:40:04.567Z,3.56
2023-02-23T08:41:03.879Z,4.07
2023-02-23T08:42:04.073Z,4.74
2023-02-23T08:43:03.981Z,4.5
2023-02-23T08:44:04.403Z,4.99
2023-02-23T08:45:04.279Z,5.01
2023-02-23T08:46:04.217Z,5.3
2023-02-23T08:47:03.885Z,4.64
2023-02-23T08:48:04.568Z,4.56
2023-02-23T08:49:04.382Z,4.14
2023-02-23T08:50:04.099Z,4.22
2023-02-23T08:51:04.299Z,5.64
2023-02-23T08:52:04.131Z,4.4
2023-02-23T08:53:04.004Z,4.8
2023-02-23T08:54:04.484Z,4.84
2023-02-23T08:55:04.250Z,4.54
2023-02-23T08:56:04.416Z,5.15
2023-02-23T08:57:04.248Z,4.47
2023-02-23T08:58:04.085Z,4.5
2023-02-23T08:59:03.803Z,4.35
2023-02-23T09:00:04.489Z,4.09
2023-02-23T09:01:03.790Z,3.89
2023-02-23T09:02:04.440Z,4.99
2023-02-23T09:03:04.444Z,4.96
2023-02-23T09:04:04.147Z,5.92
2023-02-23T09:05:03.877Z,4.39
2023-02-23T09:06:04.541Z,4.89
2023-02-23T09:07:04.162Z,5.24
2023-02-23T09:08:03.958Z,4.35
2023-02-23T09:09:03.788Z,4.76
2023-02-23T09:10:04.739Z,4.62
2023-02-23T09:11:04.325Z,4.08
2023-02-23T09:12:04.144Z,5.21
2023-02-23T09:13:03.759Z,3.88
2023-02-23T09:14:03.472Z,5.06
2023-02-23T09:15:04.423Z,5.06
2023-02-23T09:16:03.803Z,4.36
2023-02-23T09:17:04.396Z,4.36
2023-02-23T09:18:04.154Z,3.96
2023-02-23T09:19:04.081Z,3.91
2023-02-23T09:20:03.906Z,4.24
2023-02-23T09:21:04.087Z,5.76
2023-02-23T09:22:03.798Z,5.29
2023-02-23T09:23:04.409Z,3.87
2023-02-23T09:24:04.556Z,4.03
2023-02-23T09:25:04.303Z,4.79
2023-02-23T09:26:04.662Z,5.77
2023-02-23T09:27:04.113Z,4.4
2023-02-23T09:28:03.722Z,5.31
2023-02-23T09:29:04.445Z,4.36
2023-02-23T09:30:04.257Z,4.47
2023-02-23T09:31:04.875Z,3.84
2023-02-23T09:32:04.615Z,4.82
2023-02-23T09:33:04.017Z,4.65
2023-02-23T09:34:04.055Z,3.36
2023-02-23T09:35:04.094Z,5.72
2023-02-23T09:36:04.182Z,6.22
2023-02-23T09:37:03.979Z,5.35
2023-02-23T09:38:04.473Z,4.83
2023-02-23T09:39:04.409Z,5.17
2023-02-23T09:40:04.130Z,5.45
2023-02-23T09:41:03.921Z,6.22
2023-02-23T09:42:04.671Z,5
2023-02-23T09:43:04.442Z,4.42
2023-02-23T09:44:03.968Z,4.42
2023-02-23T09:45:03.741Z,4.79
2023-02-23T09:46:04.274Z,6.05
2023-02-23T09:47:03.986Z,4.75
2023-02-23T09:48:03.702Z,3.66
2023-02-23T09:49:04.603Z,5.54
2023-02-23T09:50:04.451Z,5.35
2023-02-23T09:51:03.720Z,4.8
2023-02-23T09:52:04.242Z,4.35
2023-02-23T09:53:05.020Z,4.76
2023-02-23T09:54:03.759Z,5.22
2023-02-23T09:55:04.616Z,3.44
2023-02-23T09:56:03.817Z,5.02
2023-02-23T09:57:04.550Z,6.39
2023-02-23T09:58:04.431Z,7.63
2023-02-23T09:59:04.297Z,5.01
2023-02-23T10:00:03.947Z,5.18
2023-02-23T10:01:04.011Z,5.28
2023-02-23T10:02:03.724Z,4.42
2023-02-23T10:03:04.659Z,4.98
2023-02-23T10:04:04.466Z,4.86
2023-02-23T10:05:04.061Z,6.78
2023-02-23T10:06:03.885Z,5.52
2023-02-23T10:07:04.219Z,5.52
2023-02-23T10:08:03.801Z,5.52
2023-02-23T10:09:03.964Z,4.55
2023-02-23T10:10:04.022Z,4.55
2023-02-23T10:11:03.923Z,5.46
2023-02-23T10:12:03.878Z,5.34
2023-02-23T10:13:04.291Z,4.88
2023-02-23T10:14:04.322Z,3.87
2023-02-23T10:15:04.118Z,4.76
2023-02-23T10:16:04.434Z,5.51
2023-02-23T10:17:04.086Z,7.36
2023-02-23T10:18:05.472Z,5.06
2023-02-23T10:19:04.462Z,6.12
2023-02-23T10:20:04.173Z,5.23
2023-02-23T10:21:04.248Z,4.45
2023-02-23T10:22:04.155Z,4.23
2023-02-23T10:23:04.013Z,4.55
2023-02-23T10:24:03.861Z,4.58
2023-02-23T10:25:04.533Z,6.95
2023-02-23T10:26:04.571Z,5.01
2023-02-23T10:27:04.312Z,3.6
2023-02-23T10:28:04.058Z,5.13
2023-02-23T10:29:03.758Z,6.08
2023-02-23T10:30:04.574Z,4.32
2023-02-23T10:31:04.045Z,5.6
2023-02-23T10:32:04.831Z,4.16
2023-02-23T10:33:04.285Z,3.71
2023-02-23T10:34:04.034Z,5.22
2023-02-23T10:35:04.713Z,4.61
2023-02-23T10:36:14.959Z,5.15
2023-02-23T10:37:03.983Z,5.25
2023-02-23T10:38:03.693Z,4
2023-02-23T10:39:04.489Z,5.34
2023-02-23T10:40:04.029Z,3.65
2023-02-23T10:41:03.684Z,4.56
2023-02-23T10:42:04.517Z,4.31
2023-02-23T10:43:04.357Z,5.9
2023-02-23T10:44:17.812Z,4.81
2023-02-23T10:45:03.861Z,5.25
2023-02-23T10:46:04.160Z,3.58
2023-02-23T10:47:03.747Z,4.21
2023-02-23T10:48:04.613Z,4.04
2023-02-23T10:49:04.295Z,5.25
2023-02-23T10:50:04.307Z,4.22
2023-02-23T10:51:04.534Z,5.25
2023-02-23T10:52:04.435Z,5.43
2023-02-23T10:53:04.047Z,5.14
2023-02-23T10:54:10.200Z,4.33
2023-02-23T10:55:03.889Z,4.78
2023-02-23T10:56:04.270Z,4.78
2023-02-23T10:57:03.985Z,6.26
2023-02-23T10:58:03.845Z,5.19
2023-02-23T10:59:04.564Z,5.19
2023-02-23T11:00:04.354Z,6.33
2023-02-23T11:01:04.437Z,6.91
2023-02-23T11:02:05.178Z,4.56
2023-02-23T11:03:03.985Z,4.51
2023-02-23T11:04:08.436Z,4.43
2023-02-23T11:05:04.480Z,4.91
2023-02-23T11:06:04.549Z,6.26
2023-02-23T11:07:04.188Z,5.16
2023-02-23T11:08:03.987Z,5.2
2023-02-23T11:09:05.433Z,4.07
2023-02-23T11:10:04.451Z,5.49
2023-02-23T11:11:04.621Z,4.69
2023-02-23T11:12:04.184Z,5.21
2023-02-23T11:13:04.336Z,4.99
2023-02-23T11:14:04.052Z,4.39
2023-02-23T11:15:03.696Z,5.09
2023-02-23T11:16:04.194Z,3.56
2023-02-23T11:17:03.470Z,6.15
2023-02-23T11:18:03.517Z,6.05
2023-02-23T11:19:03.672Z,6.04
2023-02-23T11:20:04.492Z,4.85
2023-02-23T11:21:04.068Z,4.29
2023-02-23T11:22:04.554Z,4.68
2023-02-23T11:23:16.218Z,5.51
2023-02-23T11:24:04.044Z,4.01
2023-02-23T11:25:03.703Z,5.5
2023-02-23T11:26:04.209Z,4.18
2023-02-23T11:27:03.649Z,5
2023-02-23T11:28:04.594Z,5.24
2023-02-23T11:29:04.150Z,6.4
2023-02-23T11:30:04.019Z,3.25
2023-02-23T11:31:04.589Z,5.33
2023-02-23T11:32:09.975Z,3.72
2023-02-23T11:33:03.760Z,5.17
2023-02-23T11:34:04.548Z,5.16
2023-02-23T11:35:04.293Z,4.75
2023-02-23T11:36:04.516Z,6.31
2023-02-23T11:37:04.253Z,4.25
2023-02-23T11:38:05.590Z,4.64
2023-02-23T11:39:03.493Z,4.72
2023-02-23T11:40:04.663Z,4.99
2023-02-23T11:41:03.657Z,5.18
2023-02-23T11:42:04.581Z,3.88
2023-02-23T11:43:04.507Z,5.88
2023-02-23T11:44:07.884Z,6.64
2023-02-23T11:45:04.103Z,6.26
2023-02-23T11:46:04.511Z,6.26
2023-02-23T11:47:04.298Z,4.96
2023-02-23T11:48:03.950Z,4.96
2023-02-23T11:49:03.812Z,4.36
2023-02-23T11:50:04.530Z,4.32
2023-02-23T11:51:03.599Z,5.39
2023-02-23T11:52:04.436Z,4.86
2023-02-23T11:53:03.985Z,5.6
2023-02-23T11:54:05.990Z,5.02
2023-02-23T11:55:03.839Z,4.89
2023-02-23T11:56:04.058Z,3.91
2023-02-23T11:57:03.757Z,5.56
2023-02-23T11:58:04.356Z,4.58
2023-02-23T11:59:03.918Z,4.19
2023-02-23T12:00:04.083Z,5.22
2023-02-23T12:01:04.391Z,4.99
2023-02-23T12:02:04.002Z,3.13
2023-02-23T12:03:03.843Z,4.44
2023-02-23T12:04:04.590Z,4.24
2023-02-23T12:05:04.307Z,3.66
2023-02-23T12:06:03.676Z,4.79
2023-02-23T12:07:04.256Z,3.75
2023-02-23T12:08:04.241Z,4.38
2023-02-23T12:09:04.000Z,4.86
2023-02-23T12:10:03.823Z,3.62
2023-02-23T12:11:04.239Z,5.42
2023-02-23T12:12:04.181Z,4.27
2023-02-23T12:13:03.769Z,5.25
2023-02-23T12:14:04.461Z,4.49
2023-02-23T12:15:04.133Z,4.83
2023-02-23T12:16:03.965Z,4.51
2023-02-23T12:17:07.005Z,4.73
2023-02-23T12:18:04.455Z,5.6
2023-02-23T12:19:04.224Z,5.8
2023-02-23T12:20:03.797Z,5.15
2023-02-23T12:21:04.362Z,5.35
2023-02-23T12:22:04.186Z,5.95
2023-02-23T12:23:03.912Z,3.99
2023-02-23T12:24:03.786Z,3.66
2023-02-23T12:25:04.503Z,4.85
2023-02-23T12:26:04.469Z,4.32
2023-02-23T12:27:04.181Z,5.2
2023-02-23T12:28:19.957Z,5.28
2023-02-23T12:29:03.752Z,4.4
2023-02-23T12:30:06.305Z,4.24
2023-02-23T12:31:04.222Z,3.94
2023-02-23T12:32:04.093Z,5.34
2023-02-23T12:33:04.649Z,3.35
2023-02-23T12:34:04.553Z,4.2
2023-02-23T12:35:04.290Z,5.24
2023-02-23T12:36:04.145Z,5.24
2023-02-23T12:37:03.899Z,4.13
2023-02-23T12:38:03.647Z,4.13
2023-02-23T12:39:04.315Z,3.89
2023-02-23T12:40:04.331Z,5.62
2023-02-23T12:41:04.108Z,5.62
2023-02-23T12:42:03.978Z,4.96
2023-02-23T12:43:03.835Z,4.05
2023-02-23T12:44:04.533Z,4.78
2023-02-23T12:45:04.297Z,5.11
2023-02-23T12:46:06.714Z,4.07
2023-02-23T12:47:04.110Z,4.27
2023-02-23T12:48:04.232Z,4.74
2023-02-23T12:49:03.843Z,4.07
2023-02-23T12:50:03.570Z,4.13
2023-02-23T12:51:03.864Z,4.05
2023-02-23T12:52:03.647Z,4.21
2023-02-23T12:53:04.451Z,4.84
2023-02-23T12:54:04.122Z,4.13
2023-02-23T12:55:03.835Z,4.45
2023-02-23T12:56:04.170Z,4.1
2023-02-23T12:57:06.535Z,4.46
2023-02-23T12:58:03.628Z,4.48
2023-02-23T12:59:04.539Z,4.74
2023-02-23T13:00:04.041Z,4.78
2023-02-23T13:01:04.085Z,3.16
2023-02-23T13:02:04.006Z,4.22
2023-02-23T13:03:03.511Z,6.29
2023-02-23T13:04:04.583Z,4.65
2023-02-23T13:05:04.449Z,4.64
2023-02-23T13:06:03.669Z,3.65
2023-02-23T13:07:07.371Z,5.02
2023-02-23T13:08:15.121Z,4.21
2023-02-23T13:09:04.181Z,4.71
2023-02-23T13:10:03.588Z,4.59
2023-02-23T13:11:03.716Z,3.81
2023-02-23T13:12:03.777Z,3.16
2023-02-23T13:13:07.298Z,4.04
2023-02-23T13:14:04.465Z,3.16
2023-02-23T13:15:04.132Z,3.72
2023-02-23T13:16:04.288Z,4.79
2023-02-23T13:17:03.994Z,4.08
2023-02-23T13:18:03.825Z,3.44
2023-02-23T13:19:06.924Z,5.14
2023-02-23T13:20:04.381Z,4.72
2023-02-23T13:21:04.515Z,3.83